sensor_id;sensor_type;location;lat;lon;timestamp;temperature;humidity
1614;DHT22;800;48.824;9.346;2024-03-02T00:00:11;12.50;63.90
1614;DHT22;800;48.824;9.346;2024-03-02T00:02:45;12.50;63.70
1614;DHT22;800;48.824;9.346;2024-03-02T00:05:12;12.50;63.50
1614;DHT22;800;48.824;9.346;2024-03-02T00:07:41;12.40;63.40
1614;DHT22;800;48.824;9.346;2024-03-02T00:10:09;12.40;63.60
1614;DHT22;800;48.824;9.346;2024-03-02T00:12:36;12.40;63.30
1614;DHT22;800;48.824;9.346;2024-03-02T00:15:21;12.40;63.10
1614;DHT22;800;48.824;9.346;2024-03-02T00:17:53;12.40;63.10
1614;DHT22;800;48.824;9.346;2024-03-02T00:20:22;12.40;63.00
1614;DHT22;800;48.824;9.346;2024-03-02T00:22:48;12.40;63.00
1614;DHT22;800;48.824;9.346;2024-03-02T00:25:13;12.40;62.90
1614;DHT22;800;48.824;9.346;2024-03-02T00:27:40;12.40;62.90
1614;DHT22;800;48.824;9.346;2024-03-02T00:30:35;12.40;62.60
1614;DHT22;800;48.824;9.346;2024-03-02T00:33:05;12.30;62.80
1614;DHT22;800;48.824;9.346;2024-03-02T00:35:32;12.30;63.10
1614;DHT22;800;48.824;9.346;2024-03-02T00:37:58;12.30;63.40
1614;DHT22;800;48.824;9.346;2024-03-02T00:40:27;12.20;63.20
1614;DHT22;800;48.824;9.346;2024-03-02T00:42:56;12.20;63.60
1614;DHT22;800;48.824;9.346;2024-03-02T00:45:21;12.00;63.90
1614;DHT22;800;48.824;9.346;2024-03-02T00:47:47;12.00;64.10
1614;DHT22;800;48.824;9.346;2024-03-02T00:50:13;11.90;64.40
1614;DHT22;800;48.824;9.346;2024-03-02T00:52:40;11.80;64.40
1614;DHT22;800;48.824;9.346;2024-03-02T00:55:07;11.80;65.30
1614;DHT22;800;48.824;9.346;2024-03-02T00:57:34;11.90;64.90
1614;DHT22;800;48.824;9.346;2024-03-02T01:00:00;12.00;64.40
1614;DHT22;800;48.824;9.346;2024-03-02T01:02:26;12.00;64.00
1614;DHT22;800;48.824;9.346;2024-03-02T01:04:52;11.80;64.70
1614;DHT22;800;48.824;9.346;2024-03-02T01:07:17;11.70;65.30
1614;DHT22;800;48.824;9.346;2024-03-02T01:09:43;11.80;64.90
1614;DHT22;800;48.824;9.346;2024-03-02T01:12:09;11.90;64.20
1614;DHT22;800;48.824;9.346;2024-03-02T01:14:34;11.90;63.80
1614;DHT22;800;48.824;9.346;2024-03-02T01:17:00;11.90;63.90
1614;DHT22;800;48.824;9.346;2024-03-02T01:19:29;11.90;63.80
1614;DHT22;800;48.824;9.346;2024-03-02T01:21:54;11.90;63.50
1614;DHT22;800;48.824;9.346;2024-03-02T01:24:20;12.00;63.40
1614;DHT22;800;48.824;9.346;2024-03-02T01:26:45;12.00;63.20
1614;DHT22;800;48.824;9.346;2024-03-02T01:29:11;12.00;63.00
1614;DHT22;800;48.824;9.346;2024-03-02T01:31:36;12.00;62.60
1614;DHT22;800;48.824;9.346;2024-03-02T01:34:02;11.90;62.70
1614;DHT22;800;48.824;9.346;2024-03-02T01:36:28;11.70;62.70
1614;DHT22;800;48.824;9.346;2024-03-02T01:38:53;11.70;63.10
1614;DHT22;800;48.824;9.346;2024-03-02T01:41:19;11.70;63.00
1614;DHT22;800;48.824;9.346;2024-03-02T01:43:44;11.80;63.00
1614;DHT22;800;48.824;9.346;2024-03-02T01:46:10;11.80;62.80
1614;DHT22;800;48.824;9.346;2024-03-02T01:48:35;11.80;62.60
1614;DHT22;800;48.824;9.346;2024-03-02T01:51:01;11.80;62.30
1614;DHT22;800;48.824;9.346;2024-03-02T01:53:27;11.90;62.30
1614;DHT22;800;48.824;9.346;2024-03-02T01:55:53;11.80;62.30
1614;DHT22;800;48.824;9.346;2024-03-02T01:58:19;11.80;62.30
1614;DHT22;800;48.824;9.346;2024-03-02T02:00:44;11.80;62.90
1614;DHT22;800;48.824;9.346;2024-03-02T02:03:11;11.80;62.10
1614;DHT22;800;48.824;9.346;2024-03-02T02:05:37;11.80;62.30
1614;DHT22;800;48.824;9.346;2024-03-02T02:08:02;11.80;62.10
1614;DHT22;800;48.824;9.346;2024-03-02T02:10:28;11.80;62.30
1614;DHT22;800;48.824;9.346;2024-03-02T02:12:54;11.80;62.30
1614;DHT22;800;48.824;9.346;2024-03-02T02:15:30;11.60;62.80
1614;DHT22;800;48.824;9.346;2024-03-02T02:17:57;11.60;63.20
1614;DHT22;800;48.824;9.346;2024-03-02T02:20:23;11.60;63.00
1614;DHT22;800;48.824;9.346;2024-03-02T02:23:03;11.50;63.10
1614;DHT22;800;48.824;9.346;2024-03-02T02:25:29;11.30;63.70
1614;DHT22;800;48.824;9.346;2024-03-02T02:27:55;11.20;64.50
1614;DHT22;800;48.824;9.346;2024-03-02T02:30:30;11.20;65.10
1614;DHT22;800;48.824;9.346;2024-03-02T02:32:56;11.30;63.60
1614;DHT22;800;48.824;9.346;2024-03-02T02:35:22;11.00;63.70
1614;DHT22;800;48.824;9.346;2024-03-02T02:37:50;10.80;65.70
1614;DHT22;800;48.824;9.346;2024-03-02T02:40:16;10.70;65.30
1614;DHT22;800;48.824;9.346;2024-03-02T02:42:42;10.60;66.00
1614;DHT22;800;48.824;9.346;2024-03-02T02:45:08;10.40;66.40
1614;DHT22;800;48.824;9.346;2024-03-02T02:47:34;10.40;66.80
1614;DHT22;800;48.824;9.346;2024-03-02T02:50:03;10.20;67.10
1614;DHT22;800;48.824;9.346;2024-03-02T02:52:34;10.10;67.20
1614;DHT22;800;48.824;9.346;2024-03-02T02:55:03;9.80;69.10
1614;DHT22;800;48.824;9.346;2024-03-02T02:57:29;9.60;70.90
1614;DHT22;800;48.824;9.346;2024-03-02T02:59:56;9.60;70.90
1614;DHT22;800;48.824;9.346;2024-03-02T03:02:22;9.80;70.60
1614;DHT22;800;48.824;9.346;2024-03-02T03:04:48;9.70;70.40
1614;DHT22;800;48.824;9.346;2024-03-02T03:07:13;9.80;71.10
1614;DHT22;800;48.824;9.346;2024-03-02T03:09:39;9.90;70.00
1614;DHT22;800;48.824;9.346;2024-03-02T03:12:04;9.90;69.70
1614;DHT22;800;48.824;9.346;2024-03-02T03:14:30;9.50;70.90
1614;DHT22;800;48.824;9.346;2024-03-02T03:16:56;9.40;72.70
1614;DHT22;800;48.824;9.346;2024-03-02T03:19:22;9.50;72.10
1614;DHT22;800;48.824;9.346;2024-03-02T03:21:47;9.60;71.70
1614;DHT22;800;48.824;9.346;2024-03-02T03:24:13;9.70;70.90
1614;DHT22;800;48.824;9.346;2024-03-02T03:26:38;9.70;70.30
1614;DHT22;800;48.824;9.346;2024-03-02T03:29:04;9.80;69.80
1614;DHT22;800;48.824;9.346;2024-03-02T03:31:29;9.90;69.60
1614;DHT22;800;48.824;9.346;2024-03-02T03:33:55;10.10;67.80
1614;DHT22;800;48.824;9.346;2024-03-02T03:36:20;10.20;67.00
1614;DHT22;800;48.824;9.346;2024-03-02T03:38:46;10.40;66.30
1614;DHT22;800;48.824;9.346;2024-03-02T03:41:12;10.50;65.60
1614;DHT22;800;48.824;9.346;2024-03-02T03:43:37;10.60;65.20
1614;DHT22;800;48.824;9.346;2024-03-02T03:46:03;10.60;64.70
1614;DHT22;800;48.824;9.346;2024-03-02T03:48:28;10.60;64.50
1614;DHT22;800;48.824;9.346;2024-03-02T03:50:56;10.60;64.30
1614;DHT22;800;48.824;9.346;2024-03-02T03:53:22;10.60;64.20
1614;DHT22;800;48.824;9.346;2024-03-02T03:55:48;10.70;64.10
1614;DHT22;800;48.824;9.346;2024-03-02T03:58:15;10.60;63.80
1614;DHT22;800;48.824;9.346;2024-03-02T04:00:42;10.50;64.30
1614;DHT22;800;48.824;9.346;2024-03-02T04:03:07;10.50;64.40
1614;DHT22;800;48.824;9.346;2024-03-02T04:05:33;10.60;64.10
1614;DHT22;800;48.824;9.346;2024-03-02T04:07:59;10.60;64.60
1614;DHT22;800;48.824;9.346;2024-03-02T04:10:25;10.70;63.70
1614;DHT22;800;48.824;9.346;2024-03-02T04:12:51;10.70;63.40
1614;DHT22;800;48.824;9.346;2024-03-02T04:15:16;10.60;63.40
1614;DHT22;800;48.824;9.346;2024-03-02T04:17:44;10.70;63.00
1614;DHT22;800;48.824;9.346;2024-03-02T04:20:09;10.60;62.90
1614;DHT22;800;48.824;9.346;2024-03-02T04:22:38;10.60;63.00
1614;DHT22;800;48.824;9.346;2024-03-02T04:25:04;10.60;63.00
1614;DHT22;800;48.824;9.346;2024-03-02T04:27:32;10.50;63.20
1614;DHT22;800;48.824;9.346;2024-03-02T04:29:58;10.20;63.80
1614;DHT22;800;48.824;9.346;2024-03-02T04:32:26;9.90;66.10
1614;DHT22;800;48.824;9.346;2024-03-02T04:34:51;9.80;67.00
1614;DHT22;800;48.824;9.346;2024-03-02T04:37:17;9.80;67.40
1614;DHT22;800;48.824;9.346;2024-03-02T04:39:43;9.80;67.20
1614;DHT22;800;48.824;9.346;2024-03-02T04:42:08;10.00;66.50
1614;DHT22;800;48.824;9.346;2024-03-02T04:44:34;10.10;65.20
1614;DHT22;800;48.824;9.346;2024-03-02T04:46:59;10.10;64.70
1614;DHT22;800;48.824;9.346;2024-03-02T04:49:25;10.10;64.30
1614;DHT22;800;48.824;9.346;2024-03-02T04:51:51;9.90;65.70
1614;DHT22;800;48.824;9.346;2024-03-02T04:54:16;9.90;66.20
1614;DHT22;800;48.824;9.346;2024-03-02T04:56:42;9.90;66.20
1614;DHT22;800;48.824;9.346;2024-03-02T04:59:18;9.80;66.10
1614;DHT22;800;48.824;9.346;2024-03-02T05:01:44;9.90;65.80
1614;DHT22;800;48.824;9.346;2024-03-02T05:04:10;9.90;66.00
1614;DHT22;800;48.824;9.346;2024-03-02T05:06:39;9.80;66.10
1614;DHT22;800;48.824;9.346;2024-03-02T05:09:09;9.80;65.90
1614;DHT22;800;48.824;9.346;2024-03-02T05:11:35;9.70;66.50
1614;DHT22;800;48.824;9.346;2024-03-02T05:14:04;9.50;67.70
1614;DHT22;800;48.824;9.346;2024-03-02T05:16:33;9.20;69.30
1614;DHT22;800;48.824;9.346;2024-03-02T05:18:59;9.10;70.10
1614;DHT22;800;48.824;9.346;2024-03-02T05:21:24;9.00;71.20
1614;DHT22;800;48.824;9.346;2024-03-02T05:23:50;8.90;72.10
1614;DHT22;800;48.824;9.346;2024-03-02T05:26:15;8.70;73.00
1614;DHT22;800;48.824;9.346;2024-03-02T05:28:43;8.90;73.10
1614;DHT22;800;48.824;9.346;2024-03-02T05:31:11;9.10;71.80
1614;DHT22;800;48.824;9.346;2024-03-02T05:33:40;9.20;71.30
1614;DHT22;800;48.824;9.346;2024-03-02T05:36:05;9.10;71.70
1614;DHT22;800;48.824;9.346;2024-03-02T05:38:32;9.10;71.50
1614;DHT22;800;48.824;9.346;2024-03-02T05:40:57;9.00;72.10
1614;DHT22;800;48.824;9.346;2024-03-02T05:43:23;8.90;72.50
1614;DHT22;800;48.824;9.346;2024-03-02T05:45:48;8.90;73.40
1614;DHT22;800;48.824;9.346;2024-03-02T05:48:14;9.00;73.00
1614;DHT22;800;48.824;9.346;2024-03-02T05:50:40;9.00;72.30
1614;DHT22;800;48.824;9.346;2024-03-02T05:53:05;8.90;72.70
1614;DHT22;800;48.824;9.346;2024-03-02T05:55:31;8.90;73.10
1614;DHT22;800;48.824;9.346;2024-03-02T05:57:57;9.10;72.60
1614;DHT22;800;48.824;9.346;2024-03-02T06:00:31;9.00;72.20
1614;DHT22;800;48.824;9.346;2024-03-02T06:02:57;9.00;72.50
1614;DHT22;800;48.824;9.346;2024-03-02T06:05:23;8.80;72.90
1614;DHT22;800;48.824;9.346;2024-03-02T06:07:50;8.80;73.90
1614;DHT22;800;48.824;9.346;2024-03-02T06:10:15;8.90;73.30
1614;DHT22;800;48.824;9.346;2024-03-02T06:12:41;8.90;72.80
1614;DHT22;800;48.824;9.346;2024-03-02T06:15:07;9.00;72.70
1614;DHT22;800;48.824;9.346;2024-03-02T06:17:34;9.20;72.20
1614;DHT22;800;48.824;9.346;2024-03-02T06:20:00;9.50;73.90
1614;DHT22;800;48.824;9.346;2024-03-02T06:22:25;9.90;73.90
1614;DHT22;800;48.824;9.346;2024-03-02T06:24:51;10.20;71.30
1614;DHT22;800;48.824;9.346;2024-03-02T06:27:17;10.30;70.00
1614;DHT22;800;48.824;9.346;2024-03-02T06:29:42;10.50;69.00
1614;DHT22;800;48.824;9.346;2024-03-02T06:32:08;10.70;67.60
1614;DHT22;800;48.824;9.346;2024-03-02T06:34:33;10.90;66.40
1614;DHT22;800;48.824;9.346;2024-03-02T06:36:59;11.00;64.80
1614;DHT22;800;48.824;9.346;2024-03-02T06:39:25;11.10;64.80
1614;DHT22;800;48.824;9.346;2024-03-02T06:41:51;11.20;63.00
1614;DHT22;800;48.824;9.346;2024-03-02T06:44:17;11.20;61.40
1614;DHT22;800;48.824;9.346;2024-03-02T06:46:42;11.20;61.80
1614;DHT22;800;48.824;9.346;2024-03-02T06:49:08;11.30;61.40
1614;DHT22;800;48.824;9.346;2024-03-02T06:51:35;11.30;60.90
1614;DHT22;800;48.824;9.346;2024-03-02T06:54:01;11.40;60.90
1614;DHT22;800;48.824;9.346;2024-03-02T06:56:27;11.50;60.40
1614;DHT22;800;48.824;9.346;2024-03-02T06:58:52;11.60;59.80
1614;DHT22;800;48.824;9.346;2024-03-02T07:01:18;11.60;59.70
1614;DHT22;800;48.824;9.346;2024-03-02T07:03:43;11.60;59.50
1614;DHT22;800;48.824;9.346;2024-03-02T07:06:09;11.70;59.20
1614;DHT22;800;48.824;9.346;2024-03-02T07:08:35;11.70;59.10
1614;DHT22;800;48.824;9.346;2024-03-02T07:11:00;11.70;59.10
1614;DHT22;800;48.824;9.346;2024-03-02T07:13:26;11.80;59.10
1614;DHT22;800;48.824;9.346;2024-03-02T07:15:52;11.70;59.00
1614;DHT22;800;48.824;9.346;2024-03-02T07:18:36;11.70;59.00
1614;DHT22;800;48.824;9.346;2024-03-02T07:21:07;11.50;58.70
1614;DHT22;800;48.824;9.346;2024-03-02T07:23:33;11.40;59.80
1614;DHT22;800;48.824;9.346;2024-03-02T07:25:59;11.40;60.30
1614;DHT22;800;48.824;9.346;2024-03-02T07:28:27;11.50;60.00
1614;DHT22;800;48.824;9.346;2024-03-02T07:33:25;11.70;60.00
1614;DHT22;800;48.824;9.346;2024-03-02T07:35:50;11.80;60.50
1614;DHT22;800;48.824;9.346;2024-03-02T07:38:16;12.00;60.50
1614;DHT22;800;48.824;9.346;2024-03-02T07:40:42;12.00;59.80
1614;DHT22;800;48.824;9.346;2024-03-02T07:43:08;11.90;60.00
1614;DHT22;800;48.824;9.346;2024-03-02T07:45:34;12.10;60.30
1614;DHT22;800;48.824;9.346;2024-03-02T07:48:01;12.30;60.20
1614;DHT22;800;48.824;9.346;2024-03-02T07:50:29;12.40;60.20
1614;DHT22;800;48.824;9.346;2024-03-02T07:52:55;12.50;60.00
1614;DHT22;800;48.824;9.346;2024-03-02T07:55:21;12.70;59.40
1614;DHT22;800;48.824;9.346;2024-03-02T07:57:47;12.80;59.80
1614;DHT22;800;48.824;9.346;2024-03-02T08:00:12;13.00;59.40
1614;DHT22;800;48.824;9.346;2024-03-02T08:02:40;12.90;59.90
1614;DHT22;800;48.824;9.346;2024-03-02T08:05:06;12.80;61.00
1614;DHT22;800;48.824;9.346;2024-03-02T08:07:31;12.80;61.00
1614;DHT22;800;48.824;9.346;2024-03-02T08:09:57;13.10;61.20
1614;DHT22;800;48.824;9.346;2024-03-02T08:12:23;13.10;60.80
1614;DHT22;800;48.824;9.346;2024-03-02T08:14:49;13.30;60.50
1614;DHT22;800;48.824;9.346;2024-03-02T08:17:14;13.30;60.60
1614;DHT22;800;48.824;9.346;2024-03-02T08:19:40;13.30;60.90
1614;DHT22;800;48.824;9.346;2024-03-02T08:22:06;13.10;61.30
1614;DHT22;800;48.824;9.346;2024-03-02T08:24:32;13.10;61.20
1614;DHT22;800;48.824;9.346;2024-03-02T08:26:59;13.00;61.30
1614;DHT22;800;48.824;9.346;2024-03-02T08:29:25;12.90;62.10
1614;DHT22;800;48.824;9.346;2024-03-02T08:31:51;13.00;61.80
1614;DHT22;800;48.824;9.346;2024-03-02T08:34:16;13.20;61.50
1614;DHT22;800;48.824;9.346;2024-03-02T08:36:42;13.20;60.80
1614;DHT22;800;48.824;9.346;2024-03-02T08:39:08;13.20;60.70
1614;DHT22;800;48.824;9.346;2024-03-02T08:41:41;13.20;61.40
1614;DHT22;800;48.824;9.346;2024-03-02T08:44:07;13.30;61.40
1614;DHT22;800;48.824;9.346;2024-03-02T08:46:33;13.40;60.40
1614;DHT22;800;48.824;9.346;2024-03-02T08:48:59;13.30;60.80
1614;DHT22;800;48.824;9.346;2024-03-02T08:51:24;13.10;60.40
1614;DHT22;800;48.824;9.346;2024-03-02T08:53:50;13.00;61.60
1614;DHT22;800;48.824;9.346;2024-03-02T08:56:15;13.00;61.90
1614;DHT22;800;48.824;9.346;2024-03-02T08:58:41;13.10;61.90
1614;DHT22;800;48.824;9.346;2024-03-02T09:01:08;13.20;61.10
1614;DHT22;800;48.824;9.346;2024-03-02T09:03:34;13.20;60.40
1614;DHT22;800;48.824;9.346;2024-03-02T09:06:00;13.20;60.90
1614;DHT22;800;48.824;9.346;2024-03-02T09:08:26;13.40;61.10
1614;DHT22;800;48.824;9.346;2024-03-02T09:10:51;13.50;60.80
1614;DHT22;800;48.824;9.346;2024-03-02T09:13:17;13.70;61.40
1614;DHT22;800;48.824;9.346;2024-03-02T09:15:43;13.70;60.70
1614;DHT22;800;48.824;9.346;2024-03-02T09:18:10;13.50;60.70
1614;DHT22;800;48.824;9.346;2024-03-02T09:20:35;13.60;61.50
1614;DHT22;800;48.824;9.346;2024-03-02T09:23:01;13.80;60.50
1614;DHT22;800;48.824;9.346;2024-03-02T09:25:26;14.10;59.50
1614;DHT22;800;48.824;9.346;2024-03-02T09:27:52;14.20;58.10
1614;DHT22;800;48.824;9.346;2024-03-02T09:30:18;14.50;58.40
1614;DHT22;800;48.824;9.346;2024-03-02T09:32:43;14.80;57.30
1614;DHT22;800;48.824;9.346;2024-03-02T09:35:09;14.90;57.20
1614;DHT22;800;48.824;9.346;2024-03-02T09:37:35;15.20;56.10
1614;DHT22;800;48.824;9.346;2024-03-02T09:40:01;15.40;55.80
1614;DHT22;800;48.824;9.346;2024-03-02T09:42:27;15.60;54.70
1614;DHT22;800;48.824;9.346;2024-03-02T09:44:53;15.60;54.50
1614;DHT22;800;48.824;9.346;2024-03-02T09:47:19;15.80;54.90
1614;DHT22;800;48.824;9.346;2024-03-02T09:49:44;16.10;54.50
1614;DHT22;800;48.824;9.346;2024-03-02T09:52:10;16.40;54.00
1614;DHT22;800;48.824;9.346;2024-03-02T09:54:36;16.60;53.10
1614;DHT22;800;48.824;9.346;2024-03-02T09:57:02;16.80;53.00
1614;DHT22;800;48.824;9.346;2024-03-02T09:59:28;17.00;51.90
1614;DHT22;800;48.824;9.346;2024-03-02T10:02:02;17.00;51.50
1614;DHT22;800;48.824;9.346;2024-03-02T10:04:29;17.00;51.10
1614;DHT22;800;48.824;9.346;2024-03-02T10:07:16;17.20;51.30
1614;DHT22;800;48.824;9.346;2024-03-02T10:09:43;17.30;51.40
1614;DHT22;800;48.824;9.346;2024-03-02T10:12:10;17.30;51.00
1614;DHT22;800;48.824;9.346;2024-03-02T10:14:37;17.60;50.60
1614;DHT22;800;48.824;9.346;2024-03-02T10:17:05;17.80;50.10
1614;DHT22;800;48.824;9.346;2024-03-02T10:19:31;17.90;48.10
1614;DHT22;800;48.824;9.346;2024-03-02T10:21:59;18.00;46.80
1614;DHT22;800;48.824;9.346;2024-03-02T10:24:25;18.10;46.80
1614;DHT22;800;48.824;9.346;2024-03-02T10:26:51;18.20;46.80
1614;DHT22;800;48.824;9.346;2024-03-02T10:29:18;18.50;46.40
1614;DHT22;800;48.824;9.346;2024-03-02T10:31:45;18.60;45.00
1614;DHT22;800;48.824;9.346;2024-03-02T10:34:14;18.80;44.80
1614;DHT22;800;48.824;9.346;2024-03-02T10:36:42;18.70;44.60
1614;DHT22;800;48.824;9.346;2024-03-02T10:39:10;18.90;44.90
1614;DHT22;800;48.824;9.346;2024-03-02T10:41:37;18.30;45.00
1614;DHT22;800;48.824;9.346;2024-03-02T10:44:04;18.60;45.50
1614;DHT22;800;48.824;9.346;2024-03-02T10:46:31;18.50;45.00
1614;DHT22;800;48.824;9.346;2024-03-02T10:48:58;19.00;46.10
1614;DHT22;800;48.824;9.346;2024-03-02T10:51:27;18.90;45.70
1614;DHT22;800;48.824;9.346;2024-03-02T10:53:54;19.40;44.40
1614;DHT22;800;48.824;9.346;2024-03-02T10:56:29;19.80;43.60
1614;DHT22;800;48.824;9.346;2024-03-02T11:01:58;20.20;42.20
1614;DHT22;800;48.824;9.346;2024-03-02T11:04:25;20.20;42.10
1614;DHT22;800;48.824;9.346;2024-03-02T11:06:52;20.40;42.10
1614;DHT22;800;48.824;9.346;2024-03-02T11:09:21;20.60;41.80
1614;DHT22;800;48.824;9.346;2024-03-02T11:11:56;20.80;41.90
1614;DHT22;800;48.824;9.346;2024-03-02T11:14:24;21.10;41.20
1614;DHT22;800;48.824;9.346;2024-03-02T11:16:51;21.30;41.60
1614;DHT22;800;48.824;9.346;2024-03-02T11:19:17;20.80;40.30
1614;DHT22;800;48.824;9.346;2024-03-02T11:21:43;21.10;41.60
1614;DHT22;800;48.824;9.346;2024-03-02T11:26:51;21.00;40.30
1614;DHT22;800;48.824;9.346;2024-03-02T11:32:01;21.40;40.90
1614;DHT22;800;48.824;9.346;2024-03-02T11:34:30;21.30;41.40
1614;DHT22;800;48.824;9.346;2024-03-02T11:36:56;21.60;41.40
1614;DHT22;800;48.824;9.346;2024-03-02T11:39:21;21.70;40.70
1614;DHT22;800;48.824;9.346;2024-03-02T11:41:48;21.80;39.50
1614;DHT22;800;48.824;9.346;2024-03-02T11:44:14;22.00;40.40
1614;DHT22;800;48.824;9.346;2024-03-02T11:46:40;22.10;39.60
1614;DHT22;800;48.824;9.346;2024-03-02T11:49:06;22.50;40.50
1614;DHT22;800;48.824;9.346;2024-03-02T11:51:33;22.80;40.20
1614;DHT22;800;48.824;9.346;2024-03-02T11:54:00;23.20;39.60
1614;DHT22;800;48.824;9.346;2024-03-02T11:56:27;23.30;37.50
1614;DHT22;800;48.824;9.346;2024-03-02T11:58:54;23.50;36.90
1614;DHT22;800;48.824;9.346;2024-03-02T12:01:20;23.70;37.50
1614;DHT22;800;48.824;9.346;2024-03-02T12:03:46;23.80;36.60
1614;DHT22;800;48.824;9.346;2024-03-02T12:06:11;23.80;36.10
1614;DHT22;800;48.824;9.346;2024-03-02T12:08:38;23.40;38.00
1614;DHT22;800;48.824;9.346;2024-03-02T12:11:04;23.50;37.50
1614;DHT22;800;48.824;9.346;2024-03-02T12:13:31;23.60;36.80
1614;DHT22;800;48.824;9.346;2024-03-02T12:15:58;23.70;35.80
1614;DHT22;800;48.824;9.346;2024-03-02T12:18:24;23.90;36.50
1614;DHT22;800;48.824;9.346;2024-03-02T12:20:51;23.70;34.90
1614;DHT22;800;48.824;9.346;2024-03-02T12:23:24;23.30;35.80
1614;DHT22;800;48.824;9.346;2024-03-02T12:25:50;23.40;37.20
1614;DHT22;800;48.824;9.346;2024-03-02T12:28:16;23.80;37.10
1614;DHT22;800;48.824;9.346;2024-03-02T12:30:42;23.90;35.90
1614;DHT22;800;48.824;9.346;2024-03-02T12:33:07;23.60;35.40
1614;DHT22;800;48.824;9.346;2024-03-02T12:35:33;23.60;35.80
1614;DHT22;800;48.824;9.346;2024-03-02T12:37:58;23.30;35.70
1614;DHT22;800;48.824;9.346;2024-03-02T12:40:24;23.30;37.40
1614;DHT22;800;48.824;9.346;2024-03-02T12:42:50;23.50;35.90
1614;DHT22;800;48.824;9.346;2024-03-02T12:45:16;23.60;35.70
1614;DHT22;800;48.824;9.346;2024-03-02T12:47:49;23.80;36.50
1614;DHT22;800;48.824;9.346;2024-03-02T12:50:15;23.70;34.70
1614;DHT22;800;48.824;9.346;2024-03-02T12:52:41;23.40;35.80
1614;DHT22;800;48.824;9.346;2024-03-02T12:55:06;23.50;36.70
1614;DHT22;800;48.824;9.346;2024-03-02T12:57:33;23.60;35.80
1614;DHT22;800;48.824;9.346;2024-03-02T13:00:06;23.50;36.10
1614;DHT22;800;48.824;9.346;2024-03-02T13:02:36;23.40;36.60
1614;DHT22;800;48.824;9.346;2024-03-02T13:05:02;23.40;36.00
1614;DHT22;800;48.824;9.346;2024-03-02T13:07:29;23.50;35.40
1614;DHT22;800;48.824;9.346;2024-03-02T13:09:55;23.70;35.50
1614;DHT22;800;48.824;9.346;2024-03-02T13:12:23;23.70;35.50
1614;DHT22;800;48.824;9.346;2024-03-02T13:14:52;23.80;35.20
1614;DHT22;800;48.824;9.346;2024-03-02T13:17:18;24.10;34.90
1614;DHT22;800;48.824;9.346;2024-03-02T13:22:18;24.40;33.40
1614;DHT22;800;48.824;9.346;2024-03-02T13:24:43;24.00;33.20
1614;DHT22;800;48.824;9.346;2024-03-02T13:27:09;23.80;33.60
1614;DHT22;800;48.824;9.346;2024-03-02T13:29:34;24.00;33.80
1614;DHT22;800;48.824;9.346;2024-03-02T13:32:00;23.90;33.30
1614;DHT22;800;48.824;9.346;2024-03-02T13:34:25;24.10;33.40
1614;DHT22;800;48.824;9.346;2024-03-02T13:36:51;24.20;33.40
1614;DHT22;800;48.824;9.346;2024-03-02T13:39:17;24.20;32.90
1614;DHT22;800;48.824;9.346;2024-03-02T13:41:42;23.90;33.00
1614;DHT22;800;48.824;9.346;2024-03-02T13:44:10;24.00;32.80
1614;DHT22;800;48.824;9.346;2024-03-02T13:46:36;24.40;32.30
1614;DHT22;800;48.824;9.346;2024-03-02T13:49:02;24.50;32.20
1614;DHT22;800;48.824;9.346;2024-03-02T13:51:28;24.50;32.10
1614;DHT22;800;48.824;9.346;2024-03-02T13:53:53;24.60;31.90
1614;DHT22;800;48.824;9.346;2024-03-02T13:56:19;24.50;31.10
1614;DHT22;800;48.824;9.346;2024-03-02T13:58:44;24.30;31.00
1614;DHT22;800;48.824;9.346;2024-03-02T14:01:11;24.20;31.40
1614;DHT22;800;48.824;9.346;2024-03-02T14:03:37;24.40;30.50
1614;DHT22;800;48.824;9.346;2024-03-02T14:06:03;24.40;30.30
1614;DHT22;800;48.824;9.346;2024-03-02T14:08:28;24.40;30.60
1614;DHT22;800;48.824;9.346;2024-03-02T14:10:55;23.90;30.60
1614;DHT22;800;48.824;9.346;2024-03-02T14:13:22;23.80;30.50
1614;DHT22;800;48.824;9.346;2024-03-02T14:15:48;24.00;31.50
1614;DHT22;800;48.824;9.346;2024-03-02T14:18:14;24.20;30.60
1614;DHT22;800;48.824;9.346;2024-03-02T14:20:39;24.40;30.00
1614;DHT22;800;48.824;9.346;2024-03-02T14:23:05;24.70;29.60
1614;DHT22;800;48.824;9.346;2024-03-02T14:25:30;24.60;29.80
1614;DHT22;800;48.824;9.346;2024-03-02T14:27:58;24.60;29.70
1614;DHT22;800;48.824;9.346;2024-03-02T14:30:24;24.50;29.30
1614;DHT22;800;48.824;9.346;2024-03-02T14:32:50;24.20;29.50
1614;DHT22;800;48.824;9.346;2024-03-02T14:35:16;23.70;29.80
1614;DHT22;800;48.824;9.346;2024-03-02T14:37:42;23.60;30.30
1614;DHT22;800;48.824;9.346;2024-03-02T14:40:08;23.80;30.10
1614;DHT22;800;48.824;9.346;2024-03-02T14:42:35;23.70;30.10
1614;DHT22;800;48.824;9.346;2024-03-02T14:45:01;23.80;29.50
1614;DHT22;800;48.824;9.346;2024-03-02T14:47:29;23.80;29.30
1614;DHT22;800;48.824;9.346;2024-03-02T14:49:55;23.80;29.50
1614;DHT22;800;48.824;9.346;2024-03-02T14:52:21;23.70;29.70
1614;DHT22;800;48.824;9.346;2024-03-02T14:54:46;23.80;29.50
1614;DHT22;800;48.824;9.346;2024-03-02T14:57:12;23.50;29.80
1614;DHT22;800;48.824;9.346;2024-03-02T14:59:37;23.50;29.80
1614;DHT22;800;48.824;9.346;2024-03-02T15:02:03;23.50;30.10
1614;DHT22;800;48.824;9.346;2024-03-02T15:04:29;23.40;29.60
1614;DHT22;800;48.824;9.346;2024-03-02T15:06:55;23.40;30.00
1614;DHT22;800;48.824;9.346;2024-03-02T15:09:20;23.30;30.20
1614;DHT22;800;48.824;9.346;2024-03-02T15:11:46;23.30;30.50
1614;DHT22;800;48.824;9.346;2024-03-02T15:14:12;22.70;30.90
1614;DHT22;800;48.824;9.346;2024-03-02T15:16:38;22.40;32.30
1614;DHT22;800;48.824;9.346;2024-03-02T15:19:03;22.30;33.20
1614;DHT22;800;48.824;9.346;2024-03-02T15:21:29;22.50;32.50
1614;DHT22;800;48.824;9.346;2024-03-02T15:23:54;22.50;32.40
1614;DHT22;800;48.824;9.346;2024-03-02T15:26:20;22.50;33.20
1614;DHT22;800;48.824;9.346;2024-03-02T15:28:46;22.30;33.80
1614;DHT22;800;48.824;9.346;2024-03-02T15:31:11;22.30;33.50
1614;DHT22;800;48.824;9.346;2024-03-02T15:33:37;22.20;34.10
1614;DHT22;800;48.824;9.346;2024-03-02T15:36:03;22.30;34.20
1614;DHT22;800;48.824;9.346;2024-03-02T15:38:30;22.10;34.40
1614;DHT22;800;48.824;9.346;2024-03-02T15:40:55;21.80;35.70
1614;DHT22;800;48.824;9.346;2024-03-02T15:43:21;21.80;36.60
1614;DHT22;800;48.824;9.346;2024-03-02T15:45:47;21.70;36.00
1614;DHT22;800;48.824;9.346;2024-03-02T15:48:12;21.50;36.30
1614;DHT22;800;48.824;9.346;2024-03-02T15:50:38;21.40;35.70
1614;DHT22;800;48.824;9.346;2024-03-02T15:53:04;21.30;36.10
1614;DHT22;800;48.824;9.346;2024-03-02T15:55:32;21.50;35.90
1614;DHT22;800;48.824;9.346;2024-03-02T15:57:58;21.30;35.80
1614;DHT22;800;48.824;9.346;2024-03-02T16:00:23;21.00;36.60
1614;DHT22;800;48.824;9.346;2024-03-02T16:02:49;20.90;36.60
1614;DHT22;800;48.824;9.346;2024-03-02T16:05:15;20.80;36.60
1614;DHT22;800;48.824;9.346;2024-03-02T16:07:42;20.50;36.50
1614;DHT22;800;48.824;9.346;2024-03-02T16:10:08;20.50;37.10
1614;DHT22;800;48.824;9.346;2024-03-02T16:12:34;20.60;36.70
1614;DHT22;800;48.824;9.346;2024-03-02T16:14:59;20.50;36.90
1614;DHT22;800;48.824;9.346;2024-03-02T16:17:25;20.30;37.30
1614;DHT22;800;48.824;9.346;2024-03-02T16:19:50;20.20;37.90
1614;DHT22;800;48.824;9.346;2024-03-02T16:22:16;20.10;38.10
1614;DHT22;800;48.824;9.346;2024-03-02T16:24:42;20.10;38.40
1614;DHT22;800;48.824;9.346;2024-03-02T16:27:07;19.90;38.80